sensor_id;sensor_type;location;lat;lon;timestamp;pressure;altitude;pressure_sealevel;temperature;humidity
80853;BME280;70270;43.434;28.338;2024-02-15T00:01:25;100376.75;;;8.28;64.15
80853;BME280;70270;43.434;28.338;2024-02-15T00:04:09;100249.94;;;7.52;64.28
80853;BME280;70270;43.434;28.338;2024-02-15T00:06:55;100253.13;;;7.56;64.15
80853;BME280;70270;43.434;28.338;2024-02-15T00:09:39;100277.97;;;7.74;63.62
80853;BME280;70270;43.434;28.338;2024-02-15T00:12:24;100389.69;;;8.10;64.29
80853;BME280;70270;43.434;28.338;2024-02-15T00:15:08;100379.38;;;8.14;64.13
80853;BME280;70270;43.434;28.338;2024-02-15T00:17:55;100373.72;;;8.23;64.45
80853;BME280;70270;43.434;28.338;2024-02-15T00:20:39;100366.38;;;7.86;64.99
80853;BME280;70270;43.434;28.338;2024-02-15T00:23:24;100389.75;;;8.02;64.51
80853;BME280;70270;43.434;28.338;2024-02-15T00:26:08;100264.50;;;7.43;64.68
80853;BME280;70270;43.434;28.338;2024-02-15T00:28:56;100374.56;;;8.01;65.04
80853;BME280;70270;43.434;28.338;2024-02-15T00:31:40;100265.56;;;7.34;64.64
80853;BME280;70270;43.434;28.338;2024-02-15T00:34:25;100372.84;;;8.08;64.40
80853;BME280;70270;43.434;28.338;2024-02-15T00:37:11;100306.06;;;7.79;64.29
80853;BME280;70270;43.434;28.338;2024-02-15T00:39:56;100334.78;;;7.95;64.56
80853;BME280;70270;43.434;28.338;2024-02-15T00:42:40;100331.81;;;7.90;64.65
80853;BME280;70270;43.434;28.338;2024-02-15T00:45:25;100331.97;;;7.88;64.48
80853;BME280;70270;43.434;28.338;2024-02-15T00:48:09;100350.13;;;7.94;64.38
80853;BME280;70270;43.434;28.338;2024-02-15T00:50:54;100327.06;;;7.92;64.28
80853;BME280;70270;43.434;28.338;2024-02-15T00:53:40;100329.44;;;7.87;64.98
80853;BME280;70270;43.434;28.338;2024-02-15T00:56:24;100318.59;;;7.72;64.65
80853;BME280;70270;43.434;28.338;2024-02-15T00:59:11;100337.63;;;7.71;65.17
80853;BME280;70270;43.434;28.338;2024-02-15T01:01:56;100327.06;;;7.69;65.27
80853;BME280;70270;43.434;28.338;2024-02-15T01:04:40;100321.16;;;7.66;65.55
80853;BME280;70270;43.434;28.338;2024-02-15T01:07:27;100328.97;;;7.52;66.15
80853;BME280;70270;43.434;28.338;2024-02-15T01:10:12;100329.16;;;7.51;65.72
80853;BME280;70270;43.434;28.338;2024-02-15T01:12:56;100328.19;;;7.75;65.41
80853;BME280;70270;43.434;28.338;2024-02-15T01:15:41;100307.22;;;7.62;65.47
80853;BME280;70270;43.434;28.338;2024-02-15T01:18:26;100322.66;;;7.68;65.17
80853;BME280;70270;43.434;28.338;2024-02-15T01:21:11;100228.75;;;7.18;65.41
80853;BME280;70270;43.434;28.338;2024-02-15T01:23:56;100311.88;;;7.68;65.43
80853;BME280;70270;43.434;28.338;2024-02-15T01:26:41;100298.66;;;7.50;65.15
80853;BME280;70270;43.434;28.338;2024-02-15T01:29:26;100229.09;;;7.15;65.63
80853;BME280;70270;43.434;28.338;2024-02-15T01:32:10;100321.81;;;7.68;65.47
80853;BME280;70270;43.434;28.338;2024-02-15T01:34:54;100314.25;;;7.63;65.44
80853;BME280;70270;43.434;28.338;2024-02-15T01:37:39;100305.03;;;7.58;65.59
80853;BME280;70270;43.434;28.338;2024-02-15T01:40:23;100334.97;;;7.63;65.89
80853;BME280;70270;43.434;28.338;2024-02-15T01:43:08;100312.94;;;7.59;66.07
80853;BME280;70270;43.434;28.338;2024-02-15T01:45:52;100324.19;;;7.63;65.56
80853;BME280;70270;43.434;28.338;2024-02-15T01:48:37;100313.78;;;7.60;65.07
80853;BME280;70270;43.434;28.338;2024-02-15T01:51:23;100341.53;;;7.68;64.81
80853;BME280;70270;43.434;28.338;2024-02-15T01:54:11;100205.44;;;6.94;64.97
80853;BME280;70270;43.434;28.338;2024-02-15T01:56:57;100318.28;;;7.67;65.20
80853;BME280;70270;43.434;28.338;2024-02-15T01:59:42;100343.75;;;7.65;65.04
80853;BME280;70270;43.434;28.338;2024-02-15T02:02:31;100325.19;;;7.70;65.21
80853;BME280;70270;43.434;28.338;2024-02-15T02:05:17;100333.63;;;7.67;64.96
80853;BME280;70270;43.434;28.338;2024-02-15T02:08:01;100327.16;;;7.76;65.31
80853;BME280;70270;43.434;28.338;2024-02-15T02:10:49;100326.81;;;7.79;64.93
80853;BME280;70270;43.434;28.338;2024-02-15T02:13:34;100302.41;;;7.72;64.21
80853;BME280;70270;43.434;28.338;2024-02-15T02:16:26;100348.38;;;7.79;64.62
80853;BME280;70270;43.434;28.338;2024-02-15T02:19:11;100338.63;;;7.78;64.77
80853;BME280;70270;43.434;28.338;2024-02-15T02:21:55;100332.75;;;7.74;64.67
80853;BME280;70270;43.434;28.338;2024-02-15T02:27:39;100354.91;;;7.62;65.38
80853;BME280;70270;43.434;28.338;2024-02-15T02:30:24;100337.59;;;7.48;64.87
80853;BME280;70270;43.434;28.338;2024-02-15T02:33:13;100343.16;;;7.46;65.01
80853;BME280;70270;43.434;28.338;2024-02-15T02:36:06;100280.25;;;7.23;64.86
80853;BME280;70270;43.434;28.338;2024-02-15T02:38:56;100372.41;;;7.66;64.94
80853;BME280;70270;43.434;28.338;2024-02-15T02:41:44;100353.78;;;7.79;64.84
80853;BME280;70270;43.434;28.338;2024-02-15T02:44:28;100341.41;;;7.62;65.15
80853;BME280;70270;43.434;28.338;2024-02-15T02:47:13;100362.91;;;7.78;64.60
80853;BME280;70270;43.434;28.338;2024-02-15T02:49:57;100365.78;;;7.76;64.96
80853;BME280;70270;43.434;28.338;2024-02-15T02:52:42;100337.63;;;7.71;64.90
80853;BME280;70270;43.434;28.338;2024-02-15T02:55:28;100341.28;;;7.86;63.91
80853;BME280;70270;43.434;28.338;2024-02-15T02:58:12;100355.31;;;7.81;64.34
80853;BME280;70270;43.434;28.338;2024-02-15T03:00:58;100364.88;;;7.84;64.79
80853;BME280;70270;43.434;28.338;2024-02-15T03:03:44;100363.63;;;7.94;64.30
80853;BME280;70270;43.434;28.338;2024-02-15T03:06:28;100322.63;;;7.76;63.72
80853;BME280;70270;43.434;28.338;2024-02-15T03:09:13;100367.44;;;8.08;64.07
80853;BME280;70270;43.434;28.338;2024-02-15T03:11:58;100360.13;;;7.94;64.23
80853;BME280;70270;43.434;28.338;2024-02-15T03:14:43;100343.31;;;7.84;63.80
80853;BME280;70270;43.434;28.338;2024-02-15T03:17:27;100341.28;;;7.86;64.22
80853;BME280;70270;43.434;28.338;2024-02-15T03:20:12;100259.28;;;7.41;63.67
80853;BME280;70270;43.434;28.338;2024-02-15T03:23:08;100356.84;;;7.98;63.95
80853;BME280;70270;43.434;28.338;2024-02-15T03:25:52;100353.34;;;7.98;63.90
80853;BME280;70270;43.434;28.338;2024-02-15T03:28:38;100343.72;;;7.95;63.95
80853;BME280;70270;43.434;28.338;2024-02-15T03:31:22;100379.59;;;8.04;63.96
80853;BME280;70270;43.434;28.338;2024-02-15T03:34:06;100366.44;;;8.09;63.87
80853;BME280;70270;43.434;28.338;2024-02-15T03:36:51;100258.22;;;7.50;63.60
80853;BME280;70270;43.434;28.338;2024-02-15T03:39:38;100350.22;;;8.09;63.25
80853;BME280;70270;43.434;28.338;2024-02-15T03:42:22;100325.91;;;7.86;63.44
80853;BME280;70270;43.434;28.338;2024-02-15T03:45:07;100288.13;;;7.64;63.65
80853;BME280;70270;43.434;28.338;2024-02-15T03:47:52;100346.75;;;8.00;63.33
80853;BME280;70270;43.434;28.338;2024-02-15T03:50:37;100364.84;;;8.15;63.21
80853;BME280;70270;43.434;28.338;2024-02-15T03:53:22;100352.66;;;7.96;63.51
80853;BME280;70270;43.434;28.338;2024-02-15T03:56:07;100371.88;;;8.01;63.10
80853;BME280;70270;43.434;28.338;2024-02-15T03:58:53;100370.31;;;8.07;63.42
80853;BME280;70270;43.434;28.338;2024-02-15T04:01:37;100360.34;;;8.07;63.66
80853;BME280;70270;43.434;28.338;2024-02-15T04:04:22;100335.31;;;7.90;63.38
80853;BME280;70270;43.434;28.338;2024-02-15T04:07:07;100353.81;;;8.02;62.81
80853;BME280;70270;43.434;28.338;2024-02-15T04:09:51;100248.69;;;7.40;63.03
80853;BME280;70270;43.434;28.338;2024-02-15T04:12:36;100358.75;;;7.98;63.37
80853;BME280;70270;43.434;28.338;2024-02-15T04:15:20;100359.97;;;7.87;63.42
80853;BME280;70270;43.434;28.338;2024-02-15T04:18:05;100239.09;;;7.37;63.11
80853;BME280;70270;43.434;28.338;2024-02-15T04:20:50;100358.69;;;8.06;63.08
80853;BME280;70270;43.434;28.338;2024-02-15T04:23:35;100335.63;;;7.95;62.91
80853;BME280;70270;43.434;28.338;2024-02-15T04:26:20;100333.94;;;7.94;63.16
80853;BME280;70270;43.434;28.338;2024-02-15T04:29:05;100219.91;;;7.32;62.94
80853;BME280;70270;43.434;28.338;2024-02-15T04:31:52;100341.66;;;8.06;63.13
80853;BME280;70270;43.434;28.338;2024-02-15T04:34:39;100217.75;;;7.28;63.08
80853;BME280;70270;43.434;28.338;2024-02-15T04:37:24;100269.47;;;7.62;63.18
80853;BME280;70270;43.434;28.338;2024-02-15T04:40:13;100359.88;;;8.04;63.13
80853;BME280;70270;43.434;28.338;2024-02-15T04:42:57;100379.19;;;8.15;62.93
80853;BME280;70270;43.434;28.338;2024-02-15T04:45:42;100255.19;;;7.53;62.89
80853;BME280;70270;43.434;28.338;2024-02-15T04:48:27;100275.53;;;7.56;62.86
80853;BME280;70270;43.434;28.338;2024-02-15T04:51:12;100311.28;;;7.81;62.83
80853;BME280;70270;43.434;28.338;2024-02-15T04:53:57;100365.59;;;8.09;63.05
80853;BME280;70270;43.434;28.338;2024-02-15T04:56:42;100357.00;;;8.05;62.59
80853;BME280;70270;43.434;28.338;2024-02-15T04:59:28;100364.25;;;8.05;62.72
80853;BME280;70270;43.434;28.338;2024-02-15T05:02:13;100369.59;;;8.13;62.60
80853;BME280;70270;43.434;28.338;2024-02-15T05:04:57;100379.28;;;7.99;63.03
80853;BME280;70270;43.434;28.338;2024-02-15T05:07:42;100376.53;;;8.07;63.18
80853;BME280;70270;43.434;28.338;2024-02-15T05:10:27;100346.41;;;7.73;62.95
80853;BME280;70270;43.434;28.338;2024-02-15T05:13:11;100293.50;;;7.41;62.83
80853;BME280;70270;43.434;28.338;2024-02-15T05:15:56;100292.28;;;7.43;62.87
80853;BME280;70270;43.434;28.338;2024-02-15T05:18:41;100297.31;;;7.46;63.26
80853;BME280;70270;43.434;28.338;2024-02-15T05:21:25;100365.50;;;7.94;62.77
80853;BME280;70270;43.434;28.338;2024-02-15T05:24:10;100352.81;;;7.72;62.93
80853;BME280;70270;43.434;28.338;2024-02-15T05:26:54;100377.00;;;7.88;63.44
80853;BME280;70270;43.434;28.338;2024-02-15T05:29:39;100379.00;;;7.94;63.37
80853;BME280;70270;43.434;28.338;2024-02-15T05:32:28;100336.03;;;7.62;62.75
80853;BME280;70270;43.434;28.338;2024-02-15T05:35:13;100405.47;;;7.90;63.10
80853;BME280;70270;43.434;28.338;2024-02-15T05:37:59;100323.09;;;7.49;63.09
80853;BME280;70270;43.434;28.338;2024-02-15T05:40:43;100396.19;;;7.93;62.92
80853;BME280;70270;43.434;28.338;2024-02-15T05:43:27;100408.44;;;8.04;66.48
80853;BME280;70270;43.434;28.338;2024-02-15T05:46:12;100386.53;;;8.52;68.67
80853;BME280;70270;43.434;28.338;2024-02-15T05:48:56;100409.97;;;9.12;65.96
80853;BME280;70270;43.434;28.338;2024-02-15T05:51:42;100421.94;;;9.61;65.34
80853;BME280;70270;43.434;28.338;2024-02-15T05:54:26;100332.59;;;9.55;64.58
80853;BME280;70270;43.434;28.338;2024-02-15T05:57:11;100397.25;;;10.00;58.85
80853;BME280;70270;43.434;28.338;2024-02-15T05:59:55;100433.66;;;9.83;57.66
80853;BME280;70270;43.434;28.338;2024-02-15T06:02:40;100429.31;;;9.53;58.07
80853;BME280;70270;43.434;28.338;2024-02-15T06:05:26;100412.34;;;9.29;58.11
80853;BME280;70270;43.434;28.338;2024-02-15T06:08:11;100370.81;;;8.56;59.22
80853;BME280;70270;43.434;28.338;2024-02-15T06:10:58;100416.91;;;8.77;59.89
80853;BME280;70270;43.434;28.338;2024-02-15T06:13:43;100357.59;;;7.92;60.69
80853;BME280;70270;43.434;28.338;2024-02-15T06:16:30;100435.75;;;8.39;61.24
80853;BME280;70270;43.434;28.338;2024-02-15T06:19:14;100402.47;;;8.16;60.88
80853;BME280;70270;43.434;28.338;2024-02-15T06:21:59;100332.59;;;7.68;61.55
80853;BME280;70270;43.434;28.338;2024-02-15T06:24:44;100477.34;;;8.22;62.20
80853;BME280;70270;43.434;28.338;2024-02-15T06:27:29;100371.53;;;7.73;61.71
80853;BME280;70270;43.434;28.338;2024-02-15T06:30:15;100466.81;;;8.35;61.78
80853;BME280;70270;43.434;28.338;2024-02-15T06:33:18;100482.53;;;8.32;61.89
80853;BME280;70270;43.434;28.338;2024-02-15T06:36:21;100478.69;;;8.26;62.41
80853;BME280;70270;43.434;28.338;2024-02-15T06:39:23;100292.84;;;7.31;61.79
80853;BME280;70270;43.434;28.338;2024-02-15T06:42:26;100374.94;;;7.59;62.12
80853;BME280;70270;43.434;28.338;2024-02-15T06:45:10;100482.03;;;8.28;62.50
80853;BME280;70270;43.434;28.338;2024-02-15T06:47:57;100380.78;;;7.71;61.52
80853;BME280;70270;43.434;28.338;2024-02-15T06:50:42;100489.75;;;8.39;61.70
80853;BME280;70270;43.434;28.338;2024-02-15T06:53:26;100376.00;;;7.89;61.54
80853;BME280;70270;43.434;28.338;2024-02-15T06:56:11;100453.31;;;8.35;61.85
80853;BME280;70270;43.434;28.338;2024-02-15T06:58:55;100463.59;;;8.40;61.87
80853;BME280;70270;43.434;28.338;2024-02-15T07:01:43;100455.31;;;8.41;61.89
80853;BME280;70270;43.434;28.338;2024-02-15T07:04:28;100273.09;;;7.38;61.42
80853;BME280;70270;43.434;28.338;2024-02-15T07:07:13;100457.13;;;8.49;61.40
80853;BME280;70270;43.434;28.338;2024-02-15T07:09:58;100352.66;;;7.96;61.57
80853;BME280;70270;43.434;28.338;2024-02-15T07:12:43;100374.41;;;8.25;60.64
80853;BME280;70270;43.434;28.338;2024-02-15T07:15:28;100448.72;;;8.67;60.70
80853;BME280;70270;43.434;28.338;2024-02-15T07:18:16;100466.13;;;8.87;61.03
80853;BME280;70270;43.434;28.338;2024-02-15T07:21:03;100431.34;;;8.84;60.36
80853;BME280;70270;43.434;28.338;2024-02-15T07:23:54;100348.78;;;8.29;60.48
80853;BME280;70270;43.434;28.338;2024-02-15T07:26:39;100368.19;;;8.48;60.50
80853;BME280;70270;43.434;28.338;2024-02-15T07:29:23;100466.81;;;9.04;60.25
80853;BME280;70270;43.434;28.338;2024-02-15T07:32:08;100431.97;;;8.94;59.53
80853;BME280;70270;43.434;28.338;2024-02-15T07:34:53;100449.19;;;8.93;59.88
80853;BME280;70270;43.434;28.338;2024-02-15T07:37:39;100436.69;;;8.92;59.75
80853;BME280;70270;43.434;28.338;2024-02-15T07:40:24;100374.03;;;8.28;60.36
80853;BME280;70270;43.434;28.338;2024-02-15T07:43:12;100442.13;;;8.69;60.41
80853;BME280;70270;43.434;28.338;2024-02-15T07:45:57;100434.97;;;8.76;60.54
80853;BME280;70270;43.434;28.338;2024-02-15T07:48:45;100444.88;;;8.84;59.72
80853;BME280;70270;43.434;28.338;2024-02-15T07:51:31;100347.19;;;8.35;59.54
80853;BME280;70270;43.434;28.338;2024-02-15T07:54:16;100441.53;;;8.82;60.51
80853;BME280;70270;43.434;28.338;2024-02-15T07:57:02;100433.13;;;8.77;60.07
80853;BME280;70270;43.434;28.338;2024-02-15T07:59:48;100357.19;;;8.26;60.18
80853;BME280;70270;43.434;28.338;2024-02-15T08:02:33;100435.34;;;8.73;60.03
80853;BME280;70270;43.434;28.338;2024-02-15T08:05:18;100429.59;;;8.91;60.25
80853;BME280;70270;43.434;28.338;2024-02-15T08:08:03;100443.34;;;9.04;60.31
80853;BME280;70270;43.434;28.338;2024-02-15T08:10:48;100447.44;;;9.15;59.61
80853;BME280;70270;43.434;28.338;2024-02-15T08:13:35;100343.34;;;8.52;59.49
80853;BME280;70270;43.434;28.338;2024-02-15T08:16:23;100454.94;;;9.27;59.82
80853;BME280;70270;43.434;28.338;2024-02-15T08:19:07;100439.09;;;9.24;59.40
80853;BME280;70270;43.434;28.338;2024-02-15T08:21:52;100419.69;;;9.06;59.19
80853;BME280;70270;43.434;28.338;2024-02-15T08:24:36;100431.34;;;9.21;59.61
80853;BME280;70270;43.434;28.338;2024-02-15T08:27:21;100358.19;;;8.71;59.10
80853;BME280;70270;43.434;28.338;2024-02-15T08:30:08;100428.34;;;9.16;59.46
80853;BME280;70270;43.434;28.338;2024-02-15T08:32:53;100350.53;;;8.60;59.70
80853;BME280;70270;43.434;28.338;2024-02-15T08:35:38;100395.13;;;8.93;59.91
80853;BME280;70270;43.434;28.338;2024-02-15T08:38:24;100423.88;;;9.23;59.42
80853;BME280;70270;43.434;28.338;2024-02-15T08:41:08;100408.88;;;9.06;58.93
80853;BME280;70270;43.434;28.338;2024-02-15T08:43:55;100319.44;;;8.64;59.62
80853;BME280;70270;43.434;28.338;2024-02-15T08:46:44;100319.72;;;8.83;59.05
80853;BME280;70270;43.434;28.338;2024-02-15T08:49:29;100414.03;;;9.30;59.23
80853;BME280;70270;43.434;28.338;2024-02-15T08:52:15;100420.28;;;9.46;58.72
80853;BME280;70270;43.434;28.338;2024-02-15T08:55:02;100392.75;;;9.27;59.01
80853;BME280;70270;43.434;28.338;2024-02-15T08:57:47;100417.19;;;9.49;59.01
80853;BME280;70270;43.434;28.338;2024-02-15T09:00:32;100407.75;;;9.59;58.96
80853;BME280;70270;43.434;28.338;2024-02-15T09:03:16;100401.53;;;9.59;58.45
80853;BME280;70270;43.434;28.338;2024-02-15T09:06:03;100421.50;;;9.58;58.61
80853;BME280;70270;43.434;28.338;2024-02-15T09:08:49;100417.75;;;9.44;58.82
80853;BME280;70270;43.434;28.338;2024-02-15T09:11:33;100407.94;;;9.43;58.64
80853;BME280;70270;43.434;28.338;2024-02-15T09:14:19;100349.56;;;9.19;58.85
80853;BME280;70270;43.434;28.338;2024-02-15T09:17:04;100418.13;;;9.56;58.63
80853;BME280;70270;43.434;28.338;2024-02-15T09:19:52;100389.31;;;9.33;59.07
80853;BME280;70270;43.434;28.338;2024-02-15T09:22:37;100404.50;;;9.64;58.70
80853;BME280;70270;43.434;28.338;2024-02-15T09:25:22;100309.78;;;9.13;58.74
80853;BME280;70270;43.434;28.338;2024-02-15T09:28:10;100415.31;;;9.64;58.59
80853;BME280;70270;43.434;28.338;2024-02-15T09:30:54;100437.31;;;9.75;58.67
80853;BME280;70270;43.434;28.338;2024-02-15T09:33:43;100418.09;;;9.85;58.79
80853;BME280;70270;43.434;28.338;2024-02-15T09:36:34;100415.94;;;9.80;58.31
80853;BME280;70270;43.434;28.338;2024-02-15T09:39:19;100403.66;;;9.78;58.25
80853;BME280;70270;43.434;28.338;2024-02-15T09:42:04;100414.97;;;9.67;58.41
80853;BME280;70270;43.434;28.338;2024-02-15T09:44:49;100305.59;;;9.25;58.60
80853;BME280;70270;43.434;28.338;2024-02-15T09:47:36;100396.19;;;9.65;58.01
80853;BME280;70270;43.434;28.338;2024-02-15T09:50:22;100307.91;;;9.28;58.56
80853;BME280;70270;43.434;28.338;2024-02-15T09:53:08;100416.59;;;9.97;57.50
80853;BME280;70270;43.434;28.338;2024-02-15T09:55:53;100404.84;;;9.90;58.43
80853;BME280;70270;43.434;28.338;2024-02-15T09:58:48;100407.06;;;10.01;57.45
80853;BME280;70270;43.434;28.338;2024-02-15T10:01:34;100292.69;;;9.27;57.46
80853;BME280;70270;43.434;28.338;2024-02-15T10:04:20;100390.75;;;9.80;57.89
80853;BME280;70270;43.434;28.338;2024-02-15T10:07:05;100386.91;;;9.89;58.22
80853;BME280;70270;43.434;28.338;2024-02-15T10:09:54;100395.31;;;9.94;58.54
80853;BME280;70270;43.434;28.338;2024-02-15T10:12:38;100306.84;;;9.44;57.59
80853;BME280;70270;43.434;28.338;2024-02-15T10:15:37;100388.44;;;9.77;58.24
80853;BME280;70270;43.434;28.338;2024-02-15T10:18:21;100390.66;;;9.88;58.27
80853;BME280;70270;43.434;28.338;2024-02-15T10:21:06;100377.44;;;9.64;58.16
80853;BME280;70270;43.434;28.338;2024-02-15T10:24:05;100367.19;;;9.74;58.27
80853;BME280;70270;43.434;28.338;2024-02-15T10:26:51;100388.72;;;9.82;58.28
80853;BME280;70270;43.434;28.338;2024-02-15T10:29:36;100351.44;;;9.63;58.29
80853;BME280;70270;43.434;28.338;2024-02-15T10:32:21;100369.66;;;9.75;58.33
80853;BME280;70270;43.434;28.338;2024-02-15T10:35:06;100389.91;;;9.79;58.38
80853;BME280;70270;43.434;28.338;2024-02-15T10:37:51;100350.56;;;9.77;57.78
80853;BME280;70270;43.434;28.338;2024-02-15T10:40:36;100381.84;;;10.01;58.12
80853;BME280;70270;43.434;28.338;2024-02-15T10:43:21;100345.19;;;9.98;58.31
80853;BME280;70270;43.434;28.338;2024-02-15T10:46:08;100366.78;;;10.13;57.73
80853;BME280;70270;43.434;28.338;2024-02-15T10:48:54;100286.41;;;9.56;57.53
80853;BME280;70270;43.434;28.338;2024-02-15T10:51:43;100327.97;;;10.06;57.66
80853;BME280;70270;43.434;28.338;2024-02-15T10:54:41;100369.88;;;10.46;57.31
80853;BME280;70270;43.434;28.338;2024-02-15T10:57:30;100341.88;;;10.17;57.22
80853;BME280;70270;43.434;28.338;2024-02-15T11:00:16;100377.47;;;10.36;57.85
80853;BME280;70270;43.434;28.338;2024-02-15T11:03:08;100374.63;;;10.44;57.78
80853;BME280;70270;43.434;28.338;2024-02-15T11:05:54;100245.09;;;9.48;57.67
80853;BME280;70270;43.434;28.338;2024-02-15T11:08:43;100374.25;;;10.47;57.97
80853;BME280;70270;43.434;28.338;2024-02-15T11:11:29;100363.16;;;10.63;58.02
80853;BME280;70270;43.434;28.338;2024-02-15T11:14:31;100374.09;;;10.76;58.06
80853;BME280;70270;43.434;28.338;2024-02-15T11:23:25;100363.63;;;10.73;57.34
80853;BME280;70270;43.434;28.338;2024-02-15T11:26:43;100365.81;;;10.84;56.81
80853;BME280;70270;43.434;28.338;2024-02-15T11:29:50;100339.09;;;10.81;57.77
80853;BME280;70270;43.434;28.338;2024-02-15T11:36:06;100370.06;;;10.93;57.34
80853;BME280;70270;43.434;28.338;2024-02-15T11:38:52;100365.63;;;11.13;56.41
80853;BME280;70270;43.434;28.338;2024-02-15T11:41:36;100358.06;;;11.09;57.46
80853;BME280;70270;43.434;28.338;2024-02-15T11:44:21;100282.22;;;10.60;57.22
80853;BME280;70270;43.434;28.338;2024-02-15T11:47:07;100353.59;;;11.22;56.32
80853;BME280;70270;43.434;28.338;2024-02-15T11:49:54;100257.13;;;10.45;56.69
80853;BME280;70270;43.434;28.338;2024-02-15T11:52:51;100267.53;;;10.48;57.34
80853;BME280;70270;43.434;28.338;2024-02-15T11:55:37;100345.78;;;11.13;57.05
80853;BME280;70270;43.434;28.338;2024-02-15T11:58:24;100367.03;;;11.09;57.32
80853;BME280;70270;43.434;28.338;2024-02-15T12:01:15;100351.06;;;11.21;57.24
80853;BME280;70270;43.434;28.338;2024-02-15T12:04:18;100319.31;;;11.15;56.68
80853;BME280;70270;43.434;28.338;2024-02-15T12:07:21;100323.41;;;11.04;57.17
80853;BME280;70270;43.434;28.338;2024-02-15T12:10:24;100346.16;;;11.38;56.84
80853;BME280;70270;43.434;28.338;2024-02-15T12:17:27;100252.78;;;10.78;57.33
80853;BME280;70270;43.434;28.338;2024-02-15T12:20:29;100322.75;;;11.37;57.32
80853;BME280;70270;43.434;28.338;2024-02-15T12:23:16;100314.78;;;11.28;57.55
80853;BME280;70270;43.434;28.338;2024-02-15T12:26:02;100352.19;;;11.33;57.95
80853;BME280;70270;43.434;28.338;2024-02-15T12:28:54;100315.28;;;11.39;57.25
80853;BME280;70270;43.434;28.338;2024-02-15T12:31:42;100320.69;;;11.39;57.52
80853;BME280;70270;43.434;28.338;2024-02-15T12:34:28;100307.75;;;11.41;57.23
80853;BME280;70270;43.434;28.338;2024-02-15T12:37:14;100312.59;;;11.52;57.14
80853;BME280;70270;43.434;28.338;2024-02-15T12:40:18;100284.09;;;11.28;57.27
80853;BME280;70270;43.434;28.338;2024-02-15T12:43:05;100313.19;;;11.41;57.74
80853;BME280;70270;43.434;28.338;2024-02-15T12:45:49;100229.75;;;11.02;57.07
80853;BME280;70270;43.434;28.338;2024-02-15T12:48:34;100291.31;;;11.49;57.05
80853;BME280;70270;43.434;28.338;2024-02-15T12:51:19;100314.97;;;11.68;56.85
80853;BME280;70270;43.434;28.338;2024-02-15T12:54:09;100292.63;;;11.59;57.21
80853;BME280;70270;43.434;28.338;2024-02-15T12:57:08;100313.78;;;11.77;56.57
80853;BME280;70270;43.434;28.338;2024-02-15T12:59:58;100324.47;;;11.85;56.86
80853;BME280;70270;43.434;28.338;2024-02-15T13:02:45;100305.41;;;11.72;56.90
80853;BME280;70270;43.434;28.338;2024-02-15T13:05:31;100332.50;;;11.65;56.93
80853;BME280;70270;43.434;28.338;2024-02-15T13:08:17;100325.91;;;11.75;56.66
80853;BME280;70270;43.434;28.338;2024-02-15T13:11:03;100296.78;;;11.62;56.47
80853;BME280;70270;43.434;28.338;2024-02-15T13:13:47;100335.13;;;11.93;56.69
80853;BME280;70270;43.434;28.338;2024-02-15T13:16:32;100293.75;;;11.78;56.54
80853;BME280;70270;43.434;28.338;2024-02-15T13:19:16;100328.91;;;11.99;57.16
80853;BME280;70270;43.434;28.338;2024-02-15T13:22:01;100342.66;;;11.91;56.51
80853;BME280;70270;43.434;28.338;2024-02-15T13:24:46;100313.59;;;11.85;56.03
80853;BME280;70270;43.434;28.338;2024-02-15T13:27:31;100310.09;;;11.91;56.79
80853;BME280;70270;43.434;28.338;2024-02-15T13:30:15;100318.00;;;11.93;56.59
80853;BME280;70270;43.434;28.338;2024-02-15T13:33:05;100272.78;;;11.59;56.42
80853;BME280;70270;43.434;28.338;2024-02-15T13:35:50;100283.66;;;11.65;56.18
80853;BME280;70270;43.434;28.338;2024-02-15T13:38:34;100352.78;;;12.24;55.68
80853;BME280;70270;43.434;28.338;2024-02-15T13:41:21;100180.84;;;11.23;55.59
80853;BME280;70270;43.434;28.338;2024-02-15T13:44:05;100347.13;;;12.25;55.68
80853;BME280;70270;43.434;28.338;2024-02-15T13:46:51;100349.84;;;12.18;55.80
80853;BME280;70270;43.434;28.338;2024-02-15T13:49:35;100361.94;;;12.16;55.00
80853;BME280;70270;43.434;28.338;2024-02-15T13:52:20;100354.84;;;12.22;55.49
80853;BME280;70270;43.434;28.338;2024-02-15T13:55:06;100323.47;;;11.99;55.85
80853;BME280;70270;43.434;28.338;2024-02-15T13:57:54;100356.34;;;12.31;54.92
80853;BME280;70270;43.434;28.338;2024-02-15T14:00:41;100334.56;;;12.11;54.86
80853;BME280;70270;43.434;28.338;2024-02-15T14:03:26;100346.91;;;12.13;55.02
80853;BME280;70270;43.434;28.338;2024-02-15T14:06:10;100361.97;;;12.23;54.86
80853;BME280;70270;43.434;28.338;2024-02-15T14:08:56;100366.94;;;12.12;54.87
80853;BME280;70270;43.434;28.338;2024-02-15T14:11:41;100266.47;;;11.45;55.55
80853;BME280;70270;43.434;28.338;2024-02-15T14:14:25;100357.28;;;11.97;54.79
80853;BME280;70270;43.434;28.338;2024-02-15T14:17:10;100370.94;;;12.16;54.83
80853;BME280;70270;43.434;28.338;2024-02-15T14:19:55;100377.38;;;12.09;55.06
80853;BME280;70270;43.434;28.338;2024-02-15T14:22:45;100358.97;;;11.98;55.36
80853;BME280;70270;43.434;28.338;2024-02-15T14:25:33;100368.81;;;12.12;54.92
80853;BME280;70270;43.434;28.338;2024-02-15T14:28:18;100284.91;;;11.69;55.03
80853;BME280;70270;43.434;28.338;2024-02-15T14:31:02;100297.03;;;11.67;55.25
80853;BME280;70270;43.434;28.338;2024-02-15T14:34:05;100287.78;;;11.55;55.23
80853;BME280;70270;43.434;28.338;2024-02-15T14:36:49;100298.69;;;11.68;55.51
80853;BME280;70270;43.434;28.338;2024-02-15T14:39:34;100359.41;;;12.01;55.03
80853;BME280;70270;43.434;28.338;2024-02-15T14:42:18;100344.72;;;11.83;55.41
80853;BME280;70270;43.434;28.338;2024-02-15T14:45:05;100369.81;;;11.91;55.34